Time;durP1;ratioP1;P1;durP2;ratioP2;P2;SDS_P1;SDS_P2;PMS_P1;PMS_P2;Temp;Humidity;BMP_temperature;BMP_pressure;BME280_temperature;BME280_humidity;BME280_pressure;Samples;Min_cycle;Max_cycle;Signal;HPM_P1;HPM_P2
2021/11/26 00:01:12;;;;;;;43.13;20.20;;;4.40;99.90;;;;;;5093642;28;20276;-81
2021/11/26 00:03:37;;;;;;;44.03;18.87;;;4.30;99.90;;;;;;5094739;28;20303;-81
2021/11/26 00:06:03;;;;;;;38.90;19.57;;;4.30;99.90;;;;;;5094464;28;20611;-81
2021/11/26 00:08:29;;;;;;;41.50;18.80;;;4.30;99.90;;;;;;5095362;28;20609;-81
2021/11/26 00:10:55;;;;;;;42.50;20.30;;;4.40;99.90;;;;;;5093532;28;20311;-81
2021/11/26 00:13:27;;;;;;;39.03;19.00;;;4.40;99.90;;;;;;5075743;28;20190;-81
2021/11/26 00:16:02;;;;;;;39.03;20.10;;;4.30;99.90;;;;;;5094299;28;20162;-82
2021/11/26 00:18:30;;;;;;;43.20;21.57;;;4.30;99.90;;;;;;5092393;28;20509;-82
2021/11/26 00:20:58;;;;;;;41.57;20.77;;;4.40;99.90;;;;;;5096534;28;20217;-82
2021/11/26 00:23:24;;;;;;;44.63;20.60;;;4.40;99.90;;;;;;5077709;28;20218;-87
2021/11/26 00:25:50;;;;;;;46.50;21.50;;;4.40;99.90;;;;;;5094210;28;20192;-82
2021/11/26 00:28:16;;;;;;;39.20;19.60;;;4.40;99.90;;;;;;5092292;28;20213;-82
2021/11/26 00:30:41;;;;;;;43.53;19.17;;;4.40;99.90;;;;;;5075360;28;20229;-83
2021/11/26 00:33:07;;;;;;;42.90;20.50;;;4.40;99.90;;;;;;5096535;28;20543;-83
2021/11/26 00:35:33;;;;;;;40.53;20.57;;;4.40;99.90;;;;;;5096017;28;20190;-83
2021/11/26 00:37:58;;;;;;;42.50;20.80;;;4.40;99.90;;;;;;5077107;28;20275;-83
2021/11/26 00:40:24;;;;;;;44.23;20.83;;;4.40;99.90;;;;;;5094838;28;20268;-83
2021/11/26 00:42:50;;;;;;;45.70;22.07;;;4.40;99.90;;;;;;5076493;28;20235;-82
2021/11/26 00:45:16;;;;;;;44.33;22.23;;;4.50;99.90;;;;;;5100177;28;20286;-82
2021/11/26 00:47:43;;;;;;;42.33;20.17;;;4.40;99.90;;;;;;5098919;28;20227;-82
2021/11/26 00:50:12;;;;;;;43.77;20.43;;;4.40;99.90;;;;;;5095768;28;20170;-83
2021/11/26 00:52:37;;;;;;;44.43;21.83;;;4.40;99.90;;;;;;5093281;28;20190;-83
2021/11/26 00:55:04;;;;;;;49.93;22.53;;;4.40;99.90;;;;;;5092171;28;20185;-83
2021/11/26 00:57:30;;;;;;;42.00;20.43;;;4.40;99.90;;;;;;5093444;28;20273;-83
2021/11/26 00:59:57;;;;;;;44.50;21.80;;;4.40;99.90;;;;;;5092578;28;20280;-83
2021/11/26 01:02:23;;;;;;;43.47;21.33;;;4.30;99.90;;;;;;5091944;28;20209;-83
2021/11/26 01:04:49;;;;;;;42.07;22.07;;;4.40;99.90;;;;;;5092139;28;20242;-83
2021/11/26 01:07:14;;;;;;;41.30;21.17;;;4.40;99.90;;;;;;5093389;28;20641;-83
2021/11/26 01:09:40;;;;;;;48.13;22.13;;;4.30;99.90;;;;;;5093158;28;20692;-83
2021/11/26 01:12:07;;;;;;;41.70;21.83;;;4.30;99.90;;;;;;5092419;28;20196;-82
2021/11/26 01:14:32;;;;;;;43.20;21.40;;;4.30;99.90;;;;;;5092433;28;20189;-83
2021/11/26 01:16:58;;;;;;;44.10;21.30;;;4.30;99.90;;;;;;5091988;28;20186;-82
2021/11/26 01:19:24;;;;;;;47.17;22.53;;;4.30;99.90;;;;;;5093559;28;20269;-82
2021/11/26 01:21:49;;;;;;;54.30;21.80;;;4.30;99.90;;;;;;5093233;28;20202;-82
2021/11/26 01:24:15;;;;;;;47.43;23.20;;;4.30;99.90;;;;;;5093319;28;20683;-82
2021/11/26 01:26:41;;;;;;;47.53;21.57;;;4.30;99.90;;;;;;5092261;28;20187;-83
2021/11/26 01:29:07;;;;;;;46.17;22.07;;;4.30;99.90;;;;;;5092863;28;20208;-83
2021/11/26 01:31:35;;;;;;;47.53;22.87;;;4.40;99.90;;;;;;5092259;28;20236;-84
2021/11/26 01:34:02;;;;;;;46.83;21.40;;;4.40;99.90;;;;;;5103510;28;20186;-83
2021/11/26 01:36:28;;;;;;;43.23;21.57;;;4.30;99.90;;;;;;5103530;28;20643;-83
2021/11/26 01:38:55;;;;;;;40.67;19.53;;;4.30;99.90;;;;;;5104299;28;20181;-83
2021/11/26 01:41:21;;;;;;;48.63;23.50;;;4.30;99.90;;;;;;5106373;28;20238;-83
2021/11/26 01:43:47;;;;;;;41.43;22.80;;;4.30;99.90;;;;;;5095512;28;20218;-84
2021/11/26 01:46:12;;;;;;;49.90;21.10;;;4.40;99.90;;;;;;5119171;28;20147;-84
2021/11/26 01:48:41;;;;;;;41.20;20.53;;;4.30;99.90;;;;;;5104159;28;20159;-90
2021/11/26 01:51:09;;;;;;;44.30;22.20;;;4.30;99.90;;;;;;5121687;28;20162;-83
2021/11/26 01:53:35;;;;;;;49.43;23.13;;;4.30;99.90;;;;;;5102321;28;20173;-84
2021/11/26 01:56:01;;;;;;;40.43;21.60;;;4.30;99.90;;;;;;5105181;28;20181;-83
2021/11/26 01:58:26;;;;;;;43.40;22.23;;;4.30;99.90;;;;;;5106027;28;20185;-83
2021/11/26 02:00:54;;;;;;;45.77;22.00;;;4.30;99.90;;;;;;5116247;28;20166;-83
2021/11/26 02:03:19;;;;;;;43.73;23.03;;;4.30;99.90;;;;;;5120616;28;20265;-82
2021/11/26 02:05:46;;;;;;;44.87;22.73;;;4.30;99.90;;;;;;5121074;28;20158;-84
2021/11/26 02:08:12;;;;;;;49.40;23.00;;;4.30;99.90;;;;;;5118725;28;20181;-83
2021/11/26 02:10:40;;;;;;;45.50;23.43;;;4.30;99.90;;;;;;5094589;28;20228;-83
2021/11/26 02:13:06;;;;;;;48.13;23.00;;;4.20;99.90;;;;;;5096529;28;20326;-83
2021/11/26 02:15:40;;;;;;;47.63;22.73;;;4.20;99.90;;;;;;5096042;28;20180;-83
2021/11/26 02:18:06;;;;;;;48.90;23.17;;;4.20;99.90;;;;;;5096252;28;20181;-82
2021/11/26 02:20:32;;;;;;;49.03;22.80;;;4.20;99.90;;;;;;5095706;28;20178;-82
2021/11/26 02:22:59;;;;;;;42.73;22.27;;;4.20;99.90;;;;;;5094116;28;20217;-82
2021/11/26 02:25:26;;;;;;;44.50;23.53;;;4.20;99.90;;;;;;5094762;28;20210;-83
2021/11/26 02:27:54;;;;;;;46.53;23.13;;;4.20;99.90;;;;;;5094204;28;20251;-83
2021/11/26 02:30:20;;;;;;;42.93;22.60;;;4.20;99.90;;;;;;5094531;28;20704;-82
2021/11/26 02:32:53;;;;;;;51.93;24.20;;;4.20;99.90;;;;;;5096016;28;20213;-82
2021/11/26 02:35:19;;;;;;;52.63;23.07;;;4.20;99.90;;;;;;5095136;28;20175;-82
2021/11/26 02:37:45;;;;;;;50.60;23.50;;;4.20;99.90;;;;;;5095240;28;20200;-81
2021/11/26 02:40:17;;;;;;;49.03;23.97;;;4.20;99.90;;;;;;5100128;28;20614;-81
2021/11/26 02:42:43;;;;;;;54.77;23.97;;;4.20;99.90;;;;;;5102447;28;20263;-83
2021/11/26 02:45:10;;;;;;;50.33;23.13;;;4.20;99.90;;;;;;5094960;28;20618;-83
2021/11/26 02:47:37;;;;;;;48.53;23.07;;;4.10;99.90;;;;;;5096847;28;20183;-81
2021/11/26 02:50:06;;;;;;;47.30;23.23;;;4.10;99.90;;;;;;5097602;28;20630;-82
2021/11/26 02:52:34;;;;;;;48.87;24.27;;;4.20;99.90;;;;;;5102419;28;20179;-82
2021/11/26 02:55:00;;;;;;;51.40;25.83;;;4.20;99.90;;;;;;5081554;28;20185;-81
2021/11/26 02:57:26;;;;;;;49.13;24.20;;;4.10;99.90;;;;;;5094490;28;20191;-83
2021/11/26 02:59:52;;;;;;;47.13;22.63;;;4.20;99.90;;;;;;5098592;28;20171;-83
2021/11/26 03:02:18;;;;;;;54.30;23.73;;;4.20;99.90;;;;;;5097546;28;20715;-82
2021/11/26 03:04:44;;;;;;;47.87;22.80;;;4.20;99.90;;;;;;5095789;28;20179;-83
2021/11/26 03:07:10;;;;;;;48.10;21.77;;;4.10;99.90;;;;;;5097365;28;20182;-82
2021/11/26 03:09:38;;;;;;;53.73;24.53;;;4.10;99.90;;;;;;5097669;28;20701;-81
2021/11/26 03:12:05;;;;;;;52.60;24.07;;;4.10;99.90;;;;;;5099125;28;20189;-82
2021/11/26 03:14:31;;;;;;;51.30;23.17;;;4.10;99.90;;;;;;5078222;28;20219;-81
2021/11/26 03:16:57;;;;;;;48.87;22.53;;;4.10;99.90;;;;;;5095191;28;20198;-82
2021/11/26 03:19:23;;;;;;;44.30;21.00;;;4.00;99.90;;;;;;5096095;28;20257;-80
2021/11/26 03:21:50;;;;;;;41.77;20.73;;;4.00;99.90;;;;;;5097485;28;20255;-83
2021/11/26 03:24:17;;;;;;;49.57;23.40;;;4.00;99.90;;;;;;5095514;28;20177;-82
2021/11/26 03:26:44;;;;;;;45.03;22.07;;;4.00;99.90;;;;;;5079816;28;20238;-82
2021/11/26 03:29:09;;;;;;;48.87;23.17;;;3.90;99.90;;;;;;5095216;28;20265;-82
2021/11/26 03:31:35;;;;;;;46.43;23.37;;;4.00;99.90;;;;;;5095745;28;20702;-82
2021/11/26 03:34:01;;;;;;;49.07;22.97;;;4.00;99.90;;;;;;5077967;28;20571;-83
2021/11/26 03:36:27;;;;;;;56.53;24.47;;;4.00;99.90;;;;;;5076752;28;20189;-83
2021/11/26 03:38:53;;;;;;;47.97;22.77;;;4.00;99.90;;;;;;5095608;28;20182;-82
2021/11/26 03:41:19;;;;;;;52.63;23.00;;;4.10;99.90;;;;;;5079280;28;20175;-82
2021/11/26 03:43:46;;;;;;;47.97;23.17;;;4.00;99.90;;;;;;5095965;28;20228;-81
2021/11/26 03:46:12;;;;;;;51.97;25.17;;;4.00;99.90;;;;;;5098573;28;20173;-82
2021/11/26 03:48:38;;;;;;;52.67;24.77;;;4.00;99.90;;;;;;5097891;28;20175;-82
2021/11/26 03:51:04;;;;;;;51.43;24.17;;;4.10;99.90;;;;;;5097313;28;20171;-83
2021/11/26 03:53:30;;;;;;;50.63;24.70;;;4.10;99.90;;;;;;5095801;28;20208;-82
2021/11/26 03:55:57;;;;;;;54.33;25.37;;;4.10;99.90;;;;;;5076464;28;20186;-83
2021/11/26 03:58:23;;;;;;;52.17;25.67;;;4.10;99.90;;;;;;5093205;28;20265;-83
2021/11/26 04:00:48;;;;;;;48.70;25.63;;;4.10;99.90;;;;;;5075698;28;20315;-87
2021/11/26 04:03:14;;;;;;;60.77;28.00;;;4.10;99.90;;;;;;5092803;28;20208;-82
2021/11/26 04:05:40;;;;;;;56.23;25.90;;;4.10;99.90;;;;;;5092899;28;20207;-83
2021/11/26 04:08:06;;;;;;;56.60;27.03;;;4.10;99.90;;;;;;5075281;28;20529;-83
2021/11/26 04:10:32;;;;;;;55.73;26.67;;;4.10;99.90;;;;;;5092038;28;20591;-83
2021/11/26 04:12:58;;;;;;;54.93;25.97;;;4.10;99.90;;;;;;5093503;28;20181;-83
2021/11/26 04:15:24;;;;;;;55.33;26.50;;;4.10;99.90;;;;;;5092582;28;20251;-82
2021/11/26 04:17:50;;;;;;;54.00;24.87;;;4.10;99.90;;;;;;5093846;28;20209;-83
2021/11/26 04:20:18;;;;;;;54.03;24.47;;;4.10;99.90;;;;;;5092511;28;20231;-82
2021/11/26 04:22:45;;;;;;;54.83;25.40;;;4.00;99.90;;;;;;5093595;28;20245;-82
2021/11/26 04:25:14;;;;;;;51.00;25.33;;;4.10;99.90;;;;;;5092230;28;20510;-82
2021/11/26 04:27:41;;;;;;;49.57;22.90;;;4.10;99.90;;;;;;5092531;28;20630;-82
2021/11/26 04:30:08;;;;;;;50.93;24.53;;;4.10;99.90;;;;;;5092049;28;20238;-83
2021/11/26 04:32:35;;;;;;;55.03;25.30;;;4.00;99.90;;;;;;5093529;28;20236;-83
2021/11/26 04:35:01;;;;;;;53.87;24.60;;;3.80;99.90;;;;;;5091848;28;20181;-83
2021/11/26 04:37:27;;;;;;;55.27;25.10;;;4.00;99.90;;;;;;5058832;28;20277;-83
2021/11/26 04:39:52;;;;;;;50.87;24.20;;;4.00;99.90;;;;;;5090988;28;20276;-83
2021/11/26 04:42:19;;;;;;;57.47;26.10;;;4.00;99.90;;;;;;5077757;28;20712;-81
2021/11/26 04:44:44;;;;;;;64.37;27.80;;;4.00;99.90;;;;;;5091342;28;20231;-82
2021/11/26 04:47:10;;;;;;;60.20;28.93;;;4.00;99.90;;;;;;5063840;28;20267;-85
2021/11/26 04:49:36;;;;;;;59.13;28.63;;;4.10;99.90;;;;;;5089051;28;20860;-81
2021/11/26 04:52:02;;;;;;;60.27;29.90;;;4.00;99.90;;;;;;5090942;28;20643;-81
2021/11/26 04:54:28;;;;;;;57.73;29.37;;;4.10;99.90;;;;;;5090170;28;20182;-82
2021/11/26 04:56:56;;;;;;;57.30;27.90;;;4.10;99.90;;;;;;5090081;28;20186;-80
2021/11/26 04:59:22;;;;;;;109.97;50.27;;;4.10;99.90;;;;;;5090679;28;20277;-81
2021/11/26 05:01:47;;;;;;;125.93;59.20;;;4.00;99.90;;;;;;5089954;28;20717;-83
2021/11/26 05:04:13;;;;;;;110.07;52.87;;;4.10;99.90;;;;;;5090304;28;20189;-82
2021/11/26 05:06:39;;;;;;;126.00;60.03;;;4.10;99.90;;;;;;5091315;28;20223;-82
2021/11/26 05:09:06;;;;;;;89.23;46.47;;;4.00;99.90;;;;;;5073600;28;20179;-84
2021/11/26 05:11:33;;;;;;;65.73;31.70;;;4.00;99.90;;;;;;5072949;28;20226;-82
2021/11/26 05:14:02;;;;;;;101.47;52.30;;;4.10;99.90;;;;;;5091181;28;20190;-82
2021/11/26 05:16:27;;;;;;;96.93;49.27;;;4.10;99.90;;;;;;5091970;28;20181;-82
2021/11/26 05:18:53;;;;;;;97.23;49.90;;;4.10;99.90;;;;;;5092963;28;20307;-81
2021/11/26 05:21:19;;;;;;;73.20;32.10;;;4.00;99.90;;;;;;5092966;28;20186;-81
2021/11/26 05:23:44;;;;;;;78.10;34.90;;;4.00;99.90;;;;;;5062170;28;20222;-81
2021/11/26 05:26:12;;;;;;;71.77;33.40;;;4.00;99.90;;;;;;5095874;28;20175;-81
2021/11/26 05:28:38;;;;;;;77.03;34.33;;;4.00;99.90;;;;;;5097098;28;20280;-81
2021/11/26 05:31:04;;;;;;;69.17;32.03;;;4.00;99.90;;;;;;5096355;28;20678;-81
2021/11/26 05:33:30;;;;;;;63.23;28.53;;;4.00;99.90;;;;;;5096825;28;20269;-81
2021/11/26 05:35:56;;;;;;;65.10;28.03;;;4.00;99.90;;;;;;5096777;28;20257;-81
2021/11/26 05:38:22;;;;;;;65.27;29.37;;;4.00;99.90;;;;;;5095091;28;20181;-81
2021/11/26 05:40:47;;;;;;;57.40;27.70;;;4.00;99.90;;;;;;5095211;28;20240;-81
2021/11/26 05:43:14;;;;;;;56.50;27.43;;;4.00;99.90;;;;;;5096014;28;20220;-80
2021/11/26 05:45:40;;;;;;;56.57;26.67;;;4.00;99.90;;;;;;5097130;28;20186;-82
2021/11/26 05:48:06;;;;;;;55.30;25.97;;;4.00;99.90;;;;;;5095924;28;20259;-85
2021/11/26 05:50:32;;;;;;;59.60;28.83;;;4.00;99.90;;;;;;5093129;28;20182;-83
2021/11/26 05:52:58;;;;;;;60.97;28.43;;;4.00;99.90;;;;;;5096430;28;20646;-84
2021/11/26 05:55:27;;;;;;;58.37;27.33;;;4.00;99.90;;;;;;5093119;28;20201;-84
2021/11/26 05:57:53;;;;;;;65.17;28.17;;;4.00;99.90;;;;;;5089521;28;20268;-82
2021/11/26 06:00:22;;;;;;;70.20;29.90;;;4.10;99.90;;;;;;5094534;28;20186;-83
2021/11/26 06:02:48;;;;;;;72.87;32.77;;;4.00;99.90;;;;;;5094545;28;20248;-82
2021/11/26 06:05:15;;;;;;;63.17;29.60;;;4.00;99.90;;;;;;5094052;28;20193;-83
2021/11/26 06:07:41;;;;;;;71.30;31.43;;;4.00;99.90;;;;;;5094078;28;20273;-82
2021/11/26 06:10:10;;;;;;;71.50;28.40;;;4.00;99.90;;;;;;5091782;28;20334;-82
2021/11/26 06:12:40;;;;;;;63.30;29.30;;;4.00;99.90;;;;;;5093840;28;20216;-83
2021/11/26 06:15:07;;;;;;;77.33;32.70;;;4.00;99.90;;;;;;5091946;28;20194;-82
2021/11/26 06:17:33;;;;;;;71.53;31.50;;;4.10;99.90;;;;;;5092591;28;20194;-84
2021/11/26 06:19:59;;;;;;;58.60;29.20;;;4.10;99.90;;;;;;5094007;28;20535;-83
2021/11/26 06:22:25;;;;;;;55.00;27.27;;;4.10;99.90;;;;;;5094136;28;20206;-82
2021/11/26 06:24:50;;;;;;;62.53;30.87;;;4.10;99.90;;;;;;5093696;28;20608;-82
2021/11/26 06:27:16;;;;;;;58.57;27.73;;;4.00;99.90;;;;;;5093648;28;20214;-83
2021/11/26 06:29:42;;;;;;;61.50;27.80;;;4.10;99.90;;;;;;5092245;28;20239;-83
2021/11/26 06:32:07;;;;;;;62.17;28.23;;;4.10;99.90;;;;;;5075051;28;20669;-82
2021/11/26 06:34:33;;;;;;;58.03;28.97;;;4.10;99.90;;;;;;5086597;28;20286;-83
2021/11/26 06:36:59;;;;;;;67.33;28.50;;;4.10;99.90;;;;;;5089859;28;20186;-81
2021/11/26 06:39:25;;;;;;;57.67;28.37;;;4.10;99.90;;;;;;5056262;28;20576;-84
2021/11/26 06:41:51;;;;;;;69.33;31.70;;;4.10;99.90;;;;;;5090955;28;20217;-82
2021/11/26 06:44:17;;;;;;;74.90;33.60;;;4.10;99.90;;;;;;5074415;28;20247;-83
2021/11/26 06:46:43;;;;;;;81.47;37.27;;;4.10;99.90;;;;;;5071735;28;20221;-83
2021/11/26 06:49:09;;;;;;;87.93;41.60;;;4.10;99.90;;;;;;5090231;28;20212;-83
2021/11/26 06:51:35;;;;;;;91.23;42.53;;;4.10;99.90;;;;;;5085523;28;20187;-85
2021/11/26 06:54:01;;;;;;;85.67;42.03;;;4.10;99.90;;;;;;5073176;28;20196;-81
2021/11/26 06:56:27;;;;;;;86.77;39.23;;;4.20;99.90;;;;;;5087381;28;20247;-82
2021/11/26 06:58:58;;;;;;;73.67;36.90;;;4.20;99.90;;;;;;5087828;28;20179;-81
2021/11/26 07:01:24;;;;;;;88.23;43.93;;;4.20;99.90;;;;;;5074050;28;20692;-82
2021/11/26 07:03:49;;;;;;;78.40;36.90;;;4.20;99.90;;;;;;5075912;28;20210;-82
2021/11/26 07:06:15;;;;;;;66.87;31.27;;;4.20;99.90;;;;;;5085064;28;20186;-83
2021/11/26 07:08:41;;;;;;;65.27;31.57;;;4.20;99.90;;;;;;5093894;28;20243;-83
2021/11/26 07:11:06;;;;;;;75.43;34.27;;;4.20;99.90;;;;;;5088650;28;20233;-82
2021/11/26 07:13:32;;;;;;;59.77;28.53;;;4.30;99.90;;;;;;5091542;28;20195;-84
2021/11/26 07:15:58;;;;;;;77.13;36.37;;;4.20;99.90;;;;;;5088073;28;20191;-83
2021/11/26 07:18:24;;;;;;;70.03;34.33;;;4.30;99.90;;;;;;5072735;28;20189;-82
2021/11/26 07:20:50;;;;;;;74.73;34.67;;;4.30;99.90;;;;;;5087651;28;20186;-83
2021/11/26 07:23:15;;;;;;;93.10;37.53;;;4.30;99.90;;;;;;5086424;28;20219;-83
2021/11/26 07:25:41;;;;;;;70.03;32.67;;;4.30;99.90;;;;;;5086257;28;20701;-83
2021/11/26 07:28:07;;;;;;;68.10;32.63;;;4.30;99.90;;;;;;5087220;28;20195;-83
2021/11/26 07:30:33;;;;;;;67.33;32.90;;;4.30;99.90;;;;;;5088669;28;20190;-83
2021/11/26 07:32:58;;;;;;;69.60;32.83;;;4.30;99.90;;;;;;5089081;28;20195;-82
2021/11/26 07:35:24;;;;;;;76.70;35.20;;;4.30;99.90;;;;;;5087360;28;20273;-83
2021/11/26 07:37:50;;;;;;;80.07;37.50;;;4.40;99.90;;;;;;5075964;28;20185;-83
2021/11/26 07:40:16;;;;;;;73.77;35.73;;;4.40;99.90;;;;;;5092322;28;20620;-85
2021/11/26 07:42:42;;;;;;;78.60;34.93;;;4.60;99.90;;;;;;5070148;28;20272;-82
2021/11/26 07:45:09;;;;;;;63.07;30.27;;;4.70;99.90;;;;;;5075676;28;20182;-82
2021/11/26 07:47:36;;;;;;;64.30;29.70;;;4.90;99.90;;;;;;5088910;28;20187;-82
2021/11/26 07:50:03;;;;;;;71.97;32.07;;;4.90;99.90;;;;;;5072068;28;20186;-82
2021/11/26 07:52:29;;;;;;;66.70;31.07;;;4.90;99.90;;;;;;5091749;28;20179;-82
2021/11/26 07:54:55;;;;;;;74.93;33.50;;;5.00;99.90;;;;;;5093410;28;20269;-82
2021/11/26 07:57:20;;;;;;;71.27;32.37;;;5.00;99.90;;;;;;5089732;28;20270;-81
2021/11/26 07:59:46;;;;;;;68.63;32.47;;;4.90;99.90;;;;;;5092790;28;20201;-81
2021/11/26 08:02:12;;;;;;;69.47;34.30;;;4.90;99.90;;;;;;5093772;28;20204;-81
2021/11/26 08:04:38;;;;;;;70.50;30.80;;;4.90;99.90;;;;;;5093904;28;20269;-82
2021/11/26 08:07:04;;;;;;;67.83;32.70;;;4.80;99.90;;;;;;5091912;28;20188;-82
2021/11/26 08:09:30;;;;;;;75.73;34.97;;;4.80;99.90;;;;;;5087083;28;20265;-82
2021/11/26 08:11:56;;;;;;;75.37;33.67;;;4.80;99.90;;;;;;5062301;28;20214;-83
2021/11/26 08:14:22;;;;;;;64.77;32.70;;;4.80;99.90;;;;;;5077226;28;20693;-82
2021/11/26 08:16:50;;;;;;;73.33;36.33;;;4.80;99.90;;;;;;5074243;28;20179;-82
2021/11/26 08:19:16;;;;;;;79.60;36.03;;;4.80;99.90;;;;;;5077637;28;20536;-84
2021/11/26 08:21:43;;;;;;;85.50;34.87;;;4.80;99.90;;;;;;5081635;28;20175;-82
2021/11/26 08:24:10;;;;;;;94.80;38.30;;;4.80;99.90;;;;;;5098544;28;20185;-81
2021/11/26 08:26:37;;;;;;;74.23;34.23;;;4.80;99.90;;;;;;5087677;28;20547;-81
2021/11/26 08:29:04;;;;;;;70.47;33.13;;;4.80;99.90;;;;;;5093135;28;20182;-81
2021/11/26 08:31:30;;;;;;;88.87;38.77;;;4.80;99.90;;;;;;5118068;28;20185;-84
2021/11/26 08:33:57;;;;;;;78.90;34.90;;;4.80;99.90;;;;;;5088111;28;20202;-82
2021/11/26 08:36:23;;;;;;;83.57;36.83;;;4.80;99.90;;;;;;5114250;28;20186;-83
2021/11/26 08:38:50;;;;;;;82.50;34.70;;;4.70;99.90;;;;;;5117884;28;20210;-85
2021/11/26 08:41:15;;;;;;;66.30;31.17;;;4.80;99.90;;;;;;5087944;28;20228;-82
2021/11/26 08:43:42;;;;;;;66.50;30.27;;;4.70;99.90;;;;;;5102393;28;20214;-83
2021/11/26 08:46:08;;;;;;;75.13;31.73;;;4.70;99.90;;;;;;5106466;28;20193;-83
2021/11/26 08:48:33;;;;;;;68.97;33.30;;;4.60;99.90;;;;;;5117793;28;20204;-86
2021/11/26 08:50:59;;;;;;;70.67;33.27;;;4.60;99.90;;;;;;5116241;28;20190;-90
2021/11/26 08:53:25;;;;;;;70.80;34.13;;;4.60;99.90;;;;;;5115163;28;20642;-87
2021/11/26 08:55:53;;;;;;;72.87;31.77;;;4.70;99.90;;;;;;5090872;28;20277;-83
2021/11/26 08:58:20;;;;;;;64.33;30.33;;;4.70;99.90;;;;;;5094321;28;20186;-87
2021/11/26 09:00:46;;;;;;;65.20;30.83;;;4.70;99.90;;;;;;5094190;28;20189;-82
2021/11/26 09:03:13;;;;;;;68.13;31.40;;;4.70;99.90;;;;;;5095832;28;20218;-83
2021/11/26 09:05:39;;;;;;;65.73;29.03;;;4.80;99.90;;;;;;5093785;28;20194;-83
2021/11/26 09:08:06;;;;;;;62.03;30.37;;;4.70;99.90;;;;;;5075668;28;20194;-84
2021/11/26 09:10:35;;;;;;;68.27;31.90;;;4.70;99.90;;;;;;5088051;28;20224;-86
2021/11/26 09:13:02;;;;;;;88.53;41.50;;;4.80;99.90;;;;;;5088268;28;20230;-84
2021/11/26 09:15:28;;;;;;;70.73;34.17;;;4.80;99.90;;;;;;5092191;28;20194;-83
2021/11/26 09:17:54;;;;;;;69.20;33.93;;;4.70;99.90;;;;;;5095343;28;20193;-83
2021/11/26 09:20:20;;;;;;;64.57;31.03;;;4.70;99.90;;;;;;5094796;28;20210;-84
2021/11/26 09:22:46;;;;;;;76.33;35.57;;;4.70;99.90;;;;;;5094060;28;20294;-85
2021/11/26 09:25:12;;;;;;;72.03;33.53;;;4.70;99.90;;;;;;5093914;28;20532;-83
2021/11/26 09:27:38;;;;;;;79.80;37.07;;;4.70;99.90;;;;;;5093928;28;20187;-82
2021/11/26 09:30:05;;;;;;;67.30;33.77;;;4.70;99.90;;;;;;5094478;28;20550;-82
2021/11/26 09:32:31;;;;;;;68.73;32.03;;;4.70;99.90;;;;;;5094472;28;20261;-84
2021/11/26 09:34:57;;;;;;;68.03;31.90;;;4.80;99.90;;;;;;5095037;28;20698;-85
2021/11/26 09:37:23;;;;;;;76.13;34.80;;;4.80;99.90;;;;;;5091856;28;20185;-82
2021/11/26 09:39:48;;;;;;;74.03;34.27;;;4.80;99.90;;;;;;5093931;28;20663;-82
2021/11/26 09:42:14;;;;;;;71.17;35.20;;;4.80;99.90;;;;;;5073308;28;20211;-82
2021/11/26 09:44:43;;;;;;;80.97;36.07;;;4.80;99.90;;;;;;5093458;28;20185;-82
2021/11/26 09:47:09;;;;;;;81.27;36.63;;;4.80;99.90;;;;;;5093583;28;20212;-81
2021/11/26 09:49:35;;;;;;;75.03;35.13;;;4.80;99.90;;;;;;5092617;28;20186;-83
2021/11/26 09:52:02;;;;;;;69.67;33.83;;;4.80;99.90;;;;;;5093484;28;20182;-82
2021/11/26 09:54:36;;;;;;;73.97;34.97;;;4.90;99.90;;;;;;5092855;28;20602;-88
2021/11/26 09:57:01;;;;;;;78.73;35.10;;;4.90;99.90;;;;;;5084379;28;20182;-82
2021/11/26 09:59:27;;;;;;;87.70;40.47;;;4.90;99.90;;;;;;5092589;28;20186;-87
2021/11/26 10:01:53;;;;;;;74.47;34.43;;;4.90;99.90;;;;;;5092741;28;20638;-80
2021/11/26 10:04:20;;;;;;;73.87;32.93;;;4.90;99.90;;;;;;5073455;28;20538;-86
2021/11/26 10:06:47;;;;;;;64.33;31.60;;;4.90;99.90;;;;;;5088286;28;20197;-82
2021/11/26 10:09:18;;;;;;;67.87;31.50;;;5.00;99.90;;;;;;5092402;28;20181;-81
2021/11/26 10:11:58;;;;;;;79.17;34.27;;;4.90;99.90;;;;;;5092196;28;20283;-82
2021/11/26 10:14:26;;;;;;;80.17;36.43;;;4.90;99.90;;;;;;5080121;28;20570;-82
2021/11/26 10:17:13;;;;;;;100.30;42.43;;;4.90;99.90;;;;;;5084599;28;20210;-82
2021/11/26 10:19:57;;;;;;;90.60;41.93;;;4.90;99.90;;;;;;5086548;28;20280;-83
2021/11/26 10:22:29;;;;;;;98.07;43.90;;;4.80;99.90;;;;;;5084832;28;20213;-82
2021/11/26 10:25:17;;;;;;;91.27;39.10;;;4.80;99.90;;;;;;5089383;28;20204;-81
2021/11/26 10:27:51;;;;;;;102.20;44.77;;;4.80;99.90;;;;;;5086017;28;20178;-81
2021/11/26 10:30:25;;;;;;;96.93;42.97;;;4.70;99.90;;;;;;5089117;28;20216;-81
2021/11/26 10:32:59;;;;;;;89.33;40.10;;;4.70;99.90;;;;;;5084734;28;20214;-81
2021/11/26 10:35:31;;;;;;;94.37;39.60;;;4.70;99.90;;;;;;5090185;28;20188;-82
2021/11/26 10:38:04;;;;;;;82.67;39.50;;;4.60;99.90;;;;;;5102669;28;20568;-81
2021/11/26 10:40:33;;;;;;;95.37;40.83;;;4.60;99.90;;;;;;5095246;28;20282;-81
2021/11/26 10:43:01;;;;;;;84.50;37.90;;;4.60;99.90;;;;;;5094132;28;20232;-82
2021/11/26 10:51:20;;;;;;;79.10;36.57;;;4.60;99.90;;;;;;5094777;28;20722;-82
2021/11/26 10:59:27;;;;;;;66.47;32.03;;;4.40;99.90;;;;;;5086567;28;20196;-82
2021/11/26 11:01:53;;;;;;;77.83;34.57;;;4.40;99.90;;;;;;5088005;28;20224;-82
2021/11/26 11:04:21;;;;;;;78.47;34.70;;;4.30;99.90;;;;;;5078836;28;20221;-83
2021/11/26 11:07:05;;;;;;;78.27;33.77;;;4.30;99.90;;;;;;5089001;28;20232;-83
2021/11/26 11:09:52;;;;;;;78.23;36.60;;;4.30;99.90;;;;;;5087947;28;20326;-83
2021/11/26 11:12:32;;;;;;;70.47;33.60;;;4.30;99.90;;;;;;5091214;28;20227;-81
2021/11/26 11:15:01;;;;;;;76.43;35.03;;;4.30;99.90;;;;;;5091243;28;20173;-83
2021/11/26 11:17:29;;;;;;;80.83;37.13;;;4.30;99.90;;;;;;5094832;28;20170;-82
2021/11/26 11:20:15;;;;;;;86.83;38.70;;;4.30;99.90;;;;;;5081033;28;20191;-82
2021/11/26 11:22:42;;;;;;;82.83;39.50;;;4.30;99.90;;;;;;5089159;28;20228;-86
2021/11/26 11:25:10;;;;;;;87.03;39.50;;;4.30;99.90;;;;;;5072904;28;20204;-82
2021/11/26 11:27:36;;;;;;;87.70;38.57;;;4.30;99.90;;;;;;5083904;28;20192;-82
2021/11/26 11:30:05;;;;;;;91.23;39.83;;;4.30;99.90;;;;;;5091761;28;20299;-83
2021/11/26 11:32:30;;;;;;;82.50;35.37;;;4.30;99.90;;;;;;5092642;28;20190;-82
2021/11/26 11:34:58;;;;;;;78.60;34.90;;;4.30;99.90;;;;;;5090645;28;20665;-82
2021/11/26 11:37:28;;;;;;;76.53;34.77;;;4.30;99.90;;;;;;5090747;28;20189;-81
2021/11/26 11:40:00;;;;;;;79.47;35.13;;;4.30;99.90;;;;;;5090506;28;20196;-82
2021/11/26 11:42:29;;;;;;;77.17;33.97;;;4.30;99.90;;;;;;5071384;28;20218;-82
2021/11/26 11:44:59;;;;;;;153.37;58.60;;;4.30;99.90;;;;;;5087236;28;20218;-81
2021/11/26 11:47:25;;;;;;;235.70;92.50;;;4.30;99.90;;;;;;5090554;28;20237;-81
2021/11/26 11:50:11;;;;;;;123.63;55.37;;;4.30;99.90;;;;;;5090172;28;20189;-82
2021/11/26 11:52:43;;;;;;;102.43;49.27;;;4.30;99.90;;;;;;5081461;28;20189;-85
2021/11/26 11:55:27;;;;;;;80.63;36.90;;;4.30;99.90;;;;;;5078952;28;20261;-83
2021/11/26 11:58:10;;;;;;;72.47;33.73;;;4.30;99.90;;;;;;5088159;28;20181;-82
2021/11/26 12:00:37;;;;;;;77.37;35.30;;;4.30;99.90;;;;;;5090210;28;20182;-83
2021/11/26 12:03:14;;;;;;;73.70;34.90;;;4.30;99.90;;;;;;5089918;28;20266;-83
2021/11/26 12:05:42;;;;;;;78.73;37.30;;;4.30;99.90;;;;;;5089468;28;20243;-82
2021/11/26 12:08:10;;;;;;;84.80;37.43;;;4.30;99.90;;;;;;5091079;28;20190;-82
2021/11/26 12:10:48;;;;;;;93.60;39.37;;;4.30;99.90;;;;;;5091056;28;20218;-81
2021/11/26 12:13:38;;;;;;;132.87;54.17;;;4.30;99.90;;;;;;5091172;28;20185;-81
2021/11/26 12:16:16;;;;;;;186.77;72.57;;;4.30;99.90;;;;;;5088187;28;20221;-81
2021/11/26 12:18:50;;;;;;;254.53;97.87;;;4.30;99.90;;;;;;5089927;28;20217;-81
2021/11/26 12:21:29;;;;;;;161.00;66.53;;;4.30;99.90;;;;;;5091504;28;20186;-81
2021/11/26 12:24:13;;;;;;;153.87;64.40;;;4.30;99.90;;;;;;5090962;28;20288;-81
2021/11/26 12:26:50;;;;;;;132.10;57.80;;;4.30;99.90;;;;;;5089219;28;20622;-81
2021/11/26 12:29:17;;;;;;;126.33;55.20;;;4.40;99.90;;;;;;5090349;28;20213;-81
2021/11/26 12:31:43;;;;;;;102.97;46.10;;;4.40;99.90;;;;;;5092588;28;20194;-80
2021/11/26 12:34:15;;;;;;;113.37;48.90;;;4.40;99.90;;;;;;5089481;28;20220;-82
2021/11/26 12:36:46;;;;;;;163.90;66.73;;;4.30;99.90;;;;;;5084258;28;20259;-83
2021/11/26 12:39:22;;;;;;;124.17;55.13;;;4.30;99.90;;;;;;5087737;28;20542;-84
2021/11/26 12:41:50;;;;;;;109.63;49.97;;;4.30;99.90;;;;;;5082280;28;20193;-85
2021/11/26 12:44:19;;;;;;;109.57;49.80;;;4.40;99.90;;;;;;5081179;28;20186;-82
2021/11/26 12:46:46;;;;;;;102.77;48.63;;;4.40;99.90;;;;;;5087205;28;20523;-84
2021/11/26 12:51:59;;;;;;;112.33;48.00;;;4.40;99.90;;;;;;5091685;28;20201;-83